Time;durP1;ratioP1;P1;durP2;ratioP2;P2;SDS_P1;SDS_P2;PMS_P1;PMS_P2;Temp;Humidity;BMP_temperature;BMP_pressure;BME280_temperature;BME280_humidity;BME280_pressure;Samples;Min_cycle;Max_cycle;Signal;HPM_P1;HPM_P2
2023/05/21 00:00:01;;;;;;;0.75;0.70;;;;;;;21.20;45.12;102074.72;5023666;28;20053;-33
2023/05/21 00:02:28;;;;;;;0.90;0.90;;;;;;;21.19;45.00;102083.81;5027778;28;20100;-33
2023/05/21 00:04:55;;;;;;;0.82;0.82;;;;;;;21.19;45.10;102077.56;5025935;28;20088;-34
2023/05/21 00:07:22;;;;;;;0.80;0.80;;;;;;;21.18;45.21;102081.22;5021215;28;20128;-33
2023/05/21 00:09:48;;;;;;;1.00;0.90;;;;;;;21.18;44.88;102075.84;5035875;28;20050;-33
2023/05/21 00:12:15;;;;;;;0.70;0.70;;;;;;;21.18;45.21;102081.22;5020838;28;20100;-33
2023/05/21 00:14:41;;;;;;;0.73;0.70;;;;;;;21.16;45.18;102072.47;5027587;28;20111;-33
2023/05/21 00:17:08;;;;;;;0.90;0.80;;;;;;;21.16;45.33;102073.31;5020396;28;20164;-33
2023/05/21 00:19:35;;;;;;;1.42;0.85;;;;;;;21.17;45.28;102074.16;5020023;28;20072;-33
2023/05/21 00:22:02;;;;;;;0.88;0.80;;;;;;;21.15;45.00;102066.22;5018119;28;20418;-33
2023/05/21 00:24:29;;;;;;;1.23;1.00;;;;;;;21.15;45.21;102070.75;5020162;28;20377;-34
2023/05/21 00:26:55;;;;;;;1.45;1.00;;;;;;;21.15;45.06;102071.63;5020881;28;20107;-33
2023/05/21 00:29:22;;;;;;;1.10;1.00;;;;;;;21.14;45.19;102069.03;5021842;28;20042;-34
2023/05/21 00:31:50;;;;;;;1.13;0.90;;;;;;;21.13;45.48;102072.75;5020355;28;20053;-33
2023/05/21 00:34:17;;;;;;;1.02;0.85;;;;;;;21.13;45.24;102064.66;5022570;28;20049;-33
2023/05/21 00:36:45;;;;;;;1.17;0.90;;;;;;;21.13;45.11;102068.19;5021972;28;20382;-33
2023/05/21 00:39:12;;;;;;;1.13;0.73;;;;;;;21.13;45.53;102067.34;5021955;28;20049;-33
2023/05/21 00:41:39;;;;;;;1.10;0.90;;;;;;;21.13;45.38;102062.81;5020949;28;20082;-33
2023/05/21 00:44:06;;;;;;;1.45;0.90;;;;;;;21.12;44.98;102065.66;5021582;28;20551;-33
2023/05/21 00:46:33;;;;;;;0.73;0.73;;;;;;;21.12;45.37;102063.81;5018028;28;20130;-34
2023/05/21 00:49:00;;;;;;;1.30;0.82;;;;;;;21.12;45.07;102065.66;5025498;28;20452;-33
2023/05/21 00:51:29;;;;;;;1.33;0.90;;;;;;;21.11;45.41;102061.25;5024687;28;20432;-33
2023/05/21 00:53:56;;;;;;;0.85;0.80;;;;;;;21.11;45.19;102051.31;5022792;28;20133;-34
2023/05/21 00:56:26;;;;;;;1.42;0.80;;;;;;;21.11;45.18;102054.03;5023311;28;20434;-34
2023/05/21 00:58:56;;;;;;;1.15;0.80;;;;;;;21.11;45.37;102058.56;5023986;28;20053;-33
2023/05/21 01:01:24;;;;;;;1.15;0.98;;;;;;;21.10;45.30;102046.91;5024053;28;20382;-34
2023/05/21 01:03:56;;;;;;;1.48;0.90;;;;;;;21.10;45.27;102049.59;5025584;28;20545;-33
2023/05/21 01:06:23;;;;;;;0.82;0.80;;;;;;;21.10;45.39;102044.22;5019866;28;20397;-33
2023/05/21 01:08:49;;;;;;;0.80;0.80;;;;;;;21.08;44.96;102040.81;5020211;28;20132;-33
2023/05/21 01:11:17;;;;;;;1.65;0.90;;;;;;;21.09;45.31;102039.81;5021743;28;20145;-33
2023/05/21 01:13:45;;;;;;;0.98;0.90;;;;;;;21.09;45.43;102039.81;5024776;28;20133;-33
2023/05/21 01:16:12;;;;;;;1.25;0.90;;;;;;;21.08;44.79;102046.22;5024091;28;20069;-33
2023/05/21 01:18:42;;;;;;;0.77;0.60;;;;;;;21.08;45.36;102043.53;5024316;28;20060;-33
2023/05/21 01:21:09;;;;;;;1.08;0.90;;;;;;;21.08;45.33;102035.44;5022775;28;20045;-33
2023/05/21 01:23:36;;;;;;;0.68;0.68;;;;;;;21.08;45.17;102035.44;5023475;28;20045;-33
2023/05/21 01:26:02;;;;;;;0.95;0.70;;;;;;;21.07;45.07;102028.34;5024566;28;20086;-33
2023/05/21 01:28:29;;;;;;;1.00;0.80;;;;;;;21.08;45.09;102026.50;5023099;28;20103;-33
2023/05/21 01:30:59;;;;;;;0.80;0.73;;;;;;;21.06;44.89;102021.22;5026823;28;20129;-33
2023/05/21 01:33:35;;;;;;;1.13;0.82;;;;;;;21.07;45.21;102030.19;5017606;28;20049;-33
2023/05/21 01:36:12;;;;;;;0.70;0.70;;;;;;;21.06;45.11;102026.63;5020941;28;20050;-33
2023/05/21 01:38:50;;;;;;;1.00;0.90;;;;;;;21.05;45.75;102035.72;5017116;28;20101;-33
2023/05/21 01:41:18;;;;;;;1.35;1.10;;;;;;;21.06;45.06;102037.41;5023393;28;20088;-33
2023/05/21 01:43:46;;;;;;;1.42;0.77;;;;;;;21.06;45.26;102040.09;5025972;28;20053;-33
2023/05/21 01:46:17;;;;;;;1.95;0.90;;;;;;;21.04;45.31;102031.31;5021515;28;20116;-33
2023/05/21 01:48:44;;;;;;;0.82;0.70;;;;;;;21.06;45.36;102033.88;5020198;28;20056;-34
2023/05/21 01:51:11;;;;;;;0.70;0.70;;;;;;;21.04;44.96;102038.56;5020723;28;20069;-33
2023/05/21 01:53:39;;;;;;;1.15;0.90;;;;;;;21.03;45.43;102032.31;5023950;28;20049;-33
2023/05/21 01:56:06;;;;;;;1.05;0.90;;;;;;;21.03;45.34;102024.25;5020739;28;20046;-33
2023/05/21 01:58:33;;;;;;;1.20;0.90;;;;;;;21.03;45.34;102031.47;5018452;28;20049;-33
2023/05/21 02:00:59;;;;;;;1.10;0.95;;;;;;;21.02;45.11;102032.44;5020037;28;20092;-33
2023/05/21 02:03:27;;;;;;;1.38;1.05;;;;;;;21.01;45.08;102031.59;5016030;28;20057;-33
2023/05/21 02:05:54;;;;;;;1.25;0.95;;;;;;;21.01;45.14;102025.38;5016786;28;20077;-33
2023/05/21 02:08:22;;;;;;;1.38;0.90;;;;;;;21.00;45.31;102032.63;5022447;28;20349;-33
2023/05/21 02:10:49;;;;;;;1.40;0.90;;;;;;;20.99;45.18;102036.31;5018476;28;20050;-33
2023/05/21 02:13:19;;;;;;;0.90;0.90;;;;;;;20.99;45.12;102039.00;5022906;28;20089;-34
2023/05/21 02:15:46;;;;;;;1.80;1.00;;;;;;;20.98;44.95;102029.19;5026232;28;20049;-33
2023/05/21 02:18:17;;;;;;;0.93;0.80;;;;;;;20.98;45.29;102026.50;5021687;28;20049;-33
2023/05/21 02:20:43;;;;;;;1.73;0.88;;;;;;;20.98;45.16;102026.50;5024635;28;20054;-33
2023/05/21 02:23:10;;;;;;;0.93;0.90;;;;;;;20.98;45.16;102028.34;5027768;28;20076;-33
2023/05/21 02:25:37;;;;;;;0.80;0.80;;;;;;;20.97;45.06;102021.25;5023064;28;20042;-33
2023/05/21 02:28:04;;;;;;;0.95;0.75;;;;;;;20.96;45.24;102025.81;5023630;28;20445;-33
2023/05/21 02:30:30;;;;;;;0.88;0.80;;;;;;;20.96;45.56;102028.50;5021863;28;20045;-33
2023/05/21 02:32:57;;;;;;;1.33;0.93;;;;;;;20.95;45.75;102032.19;5025722;28;20521;-35
2023/05/21 02:35:24;;;;;;;0.85;0.82;;;;;;;20.95;45.68;102021.41;5028701;28;20045;-33
2023/05/21 02:37:51;;;;;;;0.80;0.80;;;;;;;20.95;45.43;102026.81;5023319;28;20445;-33
2023/05/21 02:40:18;;;;;;;1.45;0.75;;;;;;;20.95;45.70;102022.25;5024737;28;20050;-33
2023/05/21 02:42:44;;;;;;;1.63;0.70;;;;;;;20.94;45.62;102022.38;5029994;28;20054;-33
2023/05/21 02:45:11;;;;;;;1.10;1.00;;;;;;;20.94;45.31;102017.00;5029657;28;20049;-33
2023/05/21 02:47:38;;;;;;;2.17;0.95;;;;;;;20.94;45.89;102025.97;5025636;28;20046;-33
2023/05/21 02:50:06;;;;;;;1.23;1.05;;;;;;;20.93;45.81;102026.94;5024028;28;20053;-33
2023/05/21 02:52:33;;;;;;;1.00;0.90;;;;;;;20.94;45.78;102022.38;5020267;28;20054;-33
2023/05/21 02:54:59;;;;;;;1.05;0.93;;;;;;;20.93;45.44;102024.25;5020364;28;20495;-33
2023/05/21 02:57:26;;;;;;;1.05;0.88;;;;;;;20.92;45.42;102027.09;5028065;28;20045;-33
2023/05/21 02:59:52;;;;;;;1.33;0.93;;;;;;;20.92;45.42;102027.09;5025624;28;20077;-33
2023/05/21 03:02:19;;;;;;;1.45;1.10;;;;;;;20.92;45.54;102027.94;5023723;28;20400;-33
2023/05/21 03:04:46;;;;;;;1.35;1.00;;;;;;;20.92;45.56;102027.09;5021494;28;20049;-33
2023/05/21 03:07:14;;;;;;;1.25;0.88;;;;;;;20.92;45.30;102024.41;5019409;28;20050;-33
2023/05/21 03:09:41;;;;;;;1.48;0.75;;;;;;;20.91;45.35;102031.63;5026551;28;20123;-33
2023/05/21 03:12:08;;;;;;;0.90;0.80;;;;;;;20.91;45.50;102031.63;5020449;28;20053;-33
2023/05/21 03:14:35;;;;;;;0.90;0.80;;;;;;;20.91;45.40;102023.56;5020402;28;20064;-33
2023/05/21 03:17:04;;;;;;;1.23;0.88;;;;;;;20.90;45.66;102018.28;5022952;28;20072;-33
2023/05/21 03:19:35;;;;;;;1.20;0.90;;;;;;;20.91;45.19;102014.63;5020257;28;20132;-33
2023/05/21 03:22:02;;;;;;;1.48;1.10;;;;;;;20.91;45.57;102020.00;5023846;28;20053;-34
2023/05/21 03:24:30;;;;;;;0.82;0.82;;;;;;;20.90;45.48;102018.28;5022655;28;20112;-32
2023/05/21 03:26:58;;;;;;;1.05;0.95;;;;;;;20.88;45.42;102013.06;5021001;28;20077;-34
2023/05/21 03:29:24;;;;;;;0.90;0.73;;;;;;;20.89;45.45;102009.34;5023004;28;20053;-33
2023/05/21 03:31:52;;;;;;;0.98;0.90;;;;;;;20.89;45.62;102009.34;5024630;28;20049;-33
2023/05/21 03:34:19;;;;;;;1.10;0.82;;;;;;;20.89;45.86;102009.34;5020828;28;20072;-33
2023/05/21 03:36:46;;;;;;;1.00;0.90;;;;;;;20.88;45.29;101999.56;5024524;28;20075;-33
2023/05/21 03:39:13;;;;;;;1.23;0.90;;;;;;;20.87;45.76;102005.97;5024484;28;20061;-33
2023/05/21 03:41:40;;;;;;;0.70;0.70;;;;;;;20.87;45.64;102007.81;5024543;28;20049;-33
2023/05/21 03:44:07;;;;;;;1.10;0.85;;;;;;;20.88;45.63;102010.34;5023720;28;20061;-33
2023/05/21 03:46:34;;;;;;;1.33;1.05;;;;;;;20.87;45.90;102015.91;5027773;28;20049;-33
2023/05/21 03:49:01;;;;;;;1.33;1.08;;;;;;;20.87;45.67;102008.66;5022265;28;20395;-33
2023/05/21 03:51:29;;;;;;;0.73;0.60;;;;;;;20.86;46.03;102006.09;5020687;28;20100;-33
2023/05/21 03:53:57;;;;;;;1.17;0.90;;;;;;;20.86;45.95;102001.56;5020619;28;20037;-33
2023/05/21 03:56:25;;;;;;;1.73;1.00;;;;;;;20.85;45.61;101999.00;5022605;28;20050;-32
2023/05/21 03:58:51;;;;;;;0.77;0.70;;;;;;;20.86;45.51;101998.00;5020262;28;20104;-32
2023/05/21 04:01:18;;;;;;;1.65;0.95;;;;;;;20.85;45.54;102005.25;5031196;28;20096;-34
2023/05/21 04:03:45;;;;;;;1.25;0.90;;;;;;;20.85;45.44;102010.63;5028452;28;20053;-33
2023/05/21 04:06:12;;;;;;;1.02;0.82;;;;;;;20.85;45.39;102005.25;5023406;28;20053;-35
2023/05/21 04:08:38;;;;;;;1.00;0.90;;;;;;;20.85;45.74;102001.72;5023021;28;20101;-35
2023/05/21 04:11:05;;;;;;;1.55;1.00;;;;;;;20.86;45.89;102008.78;5021255;28;20568;-34
2023/05/21 04:13:32;;;;;;;0.90;0.85;;;;;;;20.86;45.89;102003.41;5026854;28;20080;-35
2023/05/21 04:15:58;;;;;;;0.85;0.70;;;;;;;20.85;45.39;101999.00;5025951;28;20053;-35
2023/05/21 04:18:25;;;;;;;1.25;1.10;;;;;;;20.85;46.00;101999.00;5024049;28;20132;-34
2023/05/21 04:20:52;;;;;;;1.20;0.70;;;;;;;20.85;45.43;102007.94;5020837;28;20053;-32
2023/05/21 04:23:22;;;;;;;0.80;0.80;;;;;;;20.85;45.92;102009.78;5022108;28;20115;-33
2023/05/21 04:25:49;;;;;;;0.68;0.60;;;;;;;20.85;45.93;102012.47;5021463;28;20120;-33
2023/05/21 04:28:19;;;;;;;1.13;0.85;;;;;;;20.85;45.87;102007.09;5023599;28;20088;-33
2023/05/21 04:30:46;;;;;;;0.70;0.70;;;;;;;20.85;45.38;102001.72;5020419;28;20472;-32
2023/05/21 04:33:16;;;;;;;0.93;0.80;;;;;;;20.85;45.64;102007.94;5021342;28;20133;-32
2023/05/21 04:35:48;;;;;;;1.30;0.98;;;;;;;20.86;45.73;102008.78;5021116;28;20049;-32
2023/05/21 04:38:19;;;;;;;2.65;1.25;;;;;;;20.85;45.85;102015.19;5020468;28;20383;-32
2023/05/21 04:40:49;;;;;;;1.10;0.95;;;;;;;20.85;45.68;102015.19;5021514;28;20062;-32
2023/05/21 04:43:16;;;;;;;1.38;0.90;;;;;;;20.85;45.97;102015.19;5020950;28;20095;-32
2023/05/21 04:45:43;;;;;;;0.98;0.88;;;;;;;20.85;45.69;102009.78;5021366;28;20095;-32
2023/05/21 04:48:09;;;;;;;1.00;0.80;;;;;;;20.85;45.53;102009.78;5018797;28;20084;-32
2023/05/21 04:50:36;;;;;;;1.10;1.00;;;;;;;20.85;46.07;102010.63;5020462;28;20111;-33
2023/05/21 04:53:02;;;;;;;1.02;0.93;;;;;;;20.85;45.89;102007.09;5022588;28;20104;-33
2023/05/21 04:55:29;;;;;;;0.80;0.80;;;;;;;20.84;45.84;102008.09;5020756;28;20045;-33
2023/05/21 04:57:56;;;;;;;1.02;0.90;;;;;;;20.85;45.93;102007.94;5019908;28;20050;-33
2023/05/21 05:00:24;;;;;;;1.15;0.80;;;;;;;20.86;45.96;102008.78;5023682;28;20315;-33
2023/05/21 05:02:51;;;;;;;2.38;0.77;;;;;;;20.86;45.72;102014.19;5017495;28;20541;-33
2023/05/21 05:05:18;;;;;;;0.88;0.77;;;;;;;20.85;45.76;102010.63;5022860;28;20129;-35
2023/05/21 05:07:45;;;;;;;1.42;0.90;;;;;;;20.85;46.02;102013.31;5019175;28;20053;-33
2023/05/21 05:10:11;;;;;;;2.13;0.90;;;;;;;20.86;45.67;102008.78;5016513;28;20115;-33
2023/05/21 05:12:38;;;;;;;1.30;1.05;;;;;;;20.86;45.48;102003.41;5021153;28;20077;-33
2023/05/21 05:15:05;;;;;;;1.25;1.00;;;;;;;20.87;46.16;102007.81;5023707;28;20469;-33
2023/05/21 05:17:33;;;;;;;1.02;0.90;;;;;;;20.86;46.07;102001.56;5039413;28;20045;-33
2023/05/21 05:20:00;;;;;;;0.85;0.80;;;;;;;20.86;45.92;102004.25;5022035;28;20050;-34
2023/05/21 05:22:26;;;;;;;1.00;0.90;;;;;;;20.87;45.60;102010.50;5021994;28;20507;-33
2023/05/21 05:24:53;;;;;;;1.30;0.98;;;;;;;20.88;45.92;102010.34;5023680;28;20406;-33
2023/05/21 05:27:19;;;;;;;0.95;0.93;;;;;;;20.87;45.73;102008.66;5020160;28;20045;-33
2023/05/21 05:29:46;;;;;;;1.55;0.98;;;;;;;20.89;45.97;102008.50;5026989;28;20084;-32
2023/05/21 05:32:13;;;;;;;1.00;0.70;;;;;;;20.88;45.59;102004.97;5036229;28;20434;-33
2023/05/21 05:34:41;;;;;;;1.55;1.17;;;;;;;20.88;45.75;102004.97;5021451;28;20081;-33
2023/05/21 05:37:07;;;;;;;1.10;1.00;;;;;;;20.90;45.99;102010.19;5023576;28;20390;-33
2023/05/21 05:39:34;;;;;;;1.20;0.95;;;;;;;20.89;45.48;102009.34;5025816;28;20085;-32
2023/05/21 05:42:02;;;;;;;2.08;1.15;;;;;;;20.88;45.90;102002.28;5019185;28;20101;-32
2023/05/21 05:44:28;;;;;;;1.67;1.25;;;;;;;20.89;45.96;101998.56;5027479;28;20060;-32
2023/05/21 05:46:55;;;;;;;1.35;0.90;;;;;;;20.90;45.49;101996.72;5020886;28;20053;-36
2023/05/21 05:49:21;;;;;;;1.17;0.90;;;;;;;20.90;45.82;102002.13;5024424;28;20464;-33
2023/05/21 05:51:48;;;;;;;1.27;0.75;;;;;;;20.90;45.40;102004.81;5022701;28;20073;-32
2023/05/21 05:54:14;;;;;;;1.30;1.10;;;;;;;20.91;45.66;101993.06;5029816;28;20099;-32
2023/05/21 05:56:41;;;;;;;0.82;0.82;;;;;;;20.91;45.93;101995.75;5028496;28;20514;-32
2023/05/21 05:59:08;;;;;;;1.20;0.90;;;;;;;20.91;45.53;101993.91;5023468;28;20141;-33
2023/05/21 06:01:34;;;;;;;0.88;0.85;;;;;;;20.92;45.95;101994.75;5023488;28;20057;-32
2023/05/21 06:04:01;;;;;;;1.58;0.70;;;;;;;20.92;45.27;101990.22;5023123;28;20052;-33
2023/05/21 06:06:27;;;;;;;0.90;0.77;;;;;;;20.92;45.77;101995.59;5023183;28;20046;-33
2023/05/21 06:08:54;;;;;;;1.33;0.90;;;;;;;20.92;45.59;101995.59;5027747;28;20093;-33
2023/05/21 06:11:21;;;;;;;0.65;0.65;;;;;;;20.92;45.77;101998.28;5024153;28;20085;-32
2023/05/21 06:13:48;;;;;;;1.50;0.90;;;;;;;20.94;45.57;101995.44;5021529;28;20053;-32
2023/05/21 06:16:14;;;;;;;1.13;1.02;;;;;;;20.94;45.83;101990.03;5024056;28;20480;-32
2023/05/21 06:18:41;;;;;;;0.70;0.70;;;;;;;20.93;45.71;101999.97;5024133;28;20049;-32
2023/05/21 06:21:08;;;;;;;0.95;0.80;;;;;;;20.94;45.39;101990.03;5022330;28;20145;-32
2023/05/21 06:23:36;;;;;;;1.00;0.95;;;;;;;20.94;45.32;101981.97;5026400;28;20053;-34
2023/05/21 06:26:03;;;;;;;1.13;0.90;;;;;;;20.94;45.60;101993.63;5019339;28;20042;-34
2023/05/21 06:28:30;;;;;;;0.85;0.80;;;;;;;20.96;45.93;101996.16;5026600;28;20054;-32
2023/05/21 06:30:57;;;;;;;0.80;0.80;;;;;;;20.97;45.95;101997.84;5025861;28;20077;-33
2023/05/21 06:33:23;;;;;;;1.30;0.85;;;;;;;20.97;45.48;101987.06;5024732;28;20045;-33
2023/05/21 06:35:50;;;;;;;0.90;0.90;;;;;;;20.98;45.26;101996.84;5021153;28;20050;-32
2023/05/21 06:38:16;;;;;;;1.48;1.08;;;;;;;20.99;45.61;101995.03;5025009;28;20457;-33
2023/05/21 06:40:46;;;;;;;1.60;0.90;;;;;;;20.99;45.63;101995.03;5020169;28;20465;-32
2023/05/21 06:43:13;;;;;;;1.20;0.90;;;;;;;20.99;45.92;101998.56;5023958;28;20053;-33
2023/05/21 06:45:39;;;;;;;1.13;1.02;;;;;;;21.01;45.33;101988.47;5027792;28;20092;-32
2023/05/21 06:48:06;;;;;;;1.00;0.88;;;;;;;21.01;45.33;101993.03;5022582;28;20059;-33
2023/05/21 06:50:33;;;;;;;1.05;0.93;;;;;;;21.02;45.56;101995.56;5024653;28;20104;-33
2023/05/21 06:53:00;;;;;;;1.10;0.80;;;;;;;21.04;45.71;101990.03;5025066;28;20133;-34
2023/05/21 06:55:26;;;;;;;1.77;1.10;;;;;;;21.06;46.17;101988.03;5026843;28;20144;-33
2023/05/21 06:57:53;;;;;;;1.40;1.10;;;;;;;21.08;45.70;101991.44;5027122;28;20184;-34
2023/05/21 07:00:20;;;;;;;2.85;1.00;;;;;;;21.10;45.82;101982.22;5026231;28;20049;-34
2023/05/21 07:02:46;;;;;;;0.95;0.90;;;;;;;21.13;45.97;101987.31;5022502;28;20156;-33
2023/05/21 07:05:13;;;;;;;1.23;1.00;;;;;;;21.14;45.51;101978.22;5023286;28;20095;-34
2023/05/21 07:07:39;;;;;;;1.60;1.20;;;;;;;21.15;45.60;101988.03;5024018;28;20136;-34
2023/05/21 07:10:07;;;;;;;1.00;0.90;;;;;;;21.17;45.75;101985.19;5037311;28;20120;-33
2023/05/21 07:12:34;;;;;;;1.75;1.10;;;;;;;21.17;45.60;101986.03;5026540;28;20052;-33
2023/05/21 07:15:00;;;;;;;1.40;1.20;;;;;;;21.19;45.60;101984.03;5028161;28;20089;-33
2023/05/21 07:17:27;;;;;;;1.33;1.00;;;;;;;21.20;45.52;101991.13;5022558;28;20135;-34
2023/05/21 07:19:53;;;;;;;1.90;1.30;;;;;;;21.20;45.33;101985.75;5020456;28;20061;-33
2023/05/21 07:22:20;;;;;;;1.85;1.23;;;;;;;21.23;45.52;101998.09;5023217;28;20041;-33
2023/05/21 07:24:47;;;;;;;1.10;0.95;;;;;;;21.23;45.08;101995.38;5027114;28;20049;-33
2023/05/21 07:27:13;;;;;;;1.17;1.02;;;;;;;21.27;45.30;101995.94;5023783;28;20075;-34
2023/05/21 07:29:51;;;;;;;1.55;1.20;;;;;;;21.28;45.37;101997.63;5021175;28;20853;-33
2023/05/21 07:32:17;;;;;;;1.65;1.10;;;;;;;21.28;44.88;101998.50;5022714;28;20452;-33
2023/05/21 07:34:44;;;;;;;1.45;1.20;;;;;;;21.29;45.56;101996.63;5027734;28;20053;-33
2023/05/21 07:37:11;;;;;;;1.33;1.00;;;;;;;21.30;44.99;101998.31;5021919;28;20092;-34
2023/05/21 07:39:38;;;;;;;1.38;1.13;;;;;;;21.30;45.40;101996.47;5019358;28;20405;-33
2023/05/21 07:42:05;;;;;;;1.73;1.10;;;;;;;21.31;45.17;101986.56;5023711;28;20422;-33
2023/05/21 07:44:31;;;;;;;1.00;0.82;;;;;;;21.32;45.24;101990.97;5021919;28;20057;-33
2023/05/21 07:46:58;;;;;;;0.90;0.80;;;;;;;21.32;45.10;101983.75;5021124;28;20104;-33
2023/05/21 07:49:25;;;;;;;1.00;0.90;;;;;;;21.33;45.30;101988.13;5022694;28;20420;-35
2023/05/21 07:51:51;;;;;;;0.93;0.85;;;;;;;21.35;45.59;101988.00;5021282;28;20077;-34
2023/05/21 07:54:18;;;;;;;1.45;0.90;;;;;;;21.34;45.24;101981.72;5022708;28;20099;-34
2023/05/21 07:56:45;;;;;;;1.17;0.90;;;;;;;21.34;45.53;101986.28;5020228;28;20072;-33
2023/05/21 07:59:13;;;;;;;0.95;0.93;;;;;;;21.35;45.02;101982.63;5023262;28;20053;-33
2023/05/21 08:01:40;;;;;;;1.60;1.00;;;;;;;21.37;44.84;101988.69;5028179;28;20049;-33
2023/05/21 08:04:07;;;;;;;1.58;0.93;;;;;;;21.38;45.43;101982.28;5021527;28;20133;-33
2023/05/21 08:06:36;;;;;;;1.10;1.00;;;;;;;21.38;45.64;101983.13;5018569;28;20057;-33
2023/05/21 08:09:05;;;;;;;2.08;1.45;;;;;;;21.39;45.22;101973.22;5020801;28;20133;-34
2023/05/21 08:11:32;;;;;;;1.20;1.10;;;;;;;21.39;45.50;101974.06;5024847;28;20054;-35
2023/05/21 08:13:58;;;;;;;1.30;1.10;;;;;;;21.41;45.50;101973.91;5025787;28;20050;-32
2023/05/21 08:16:25;;;;;;;1.42;1.17;;;;;;;21.41;45.39;101980.16;5027595;28;20049;-34
2023/05/21 08:18:51;;;;;;;1.23;1.10;;;;;;;21.41;45.30;101980.16;5024698;28;20049;-33
2023/05/21 08:21:18;;;;;;;1.45;1.20;;;;;;;21.43;44.96;101982.72;5021950;28;20121;-32
2023/05/21 08:23:45;;;;;;;1.40;1.10;;;;;;;21.44;45.21;101976.31;5026599;28;20060;-33
2023/05/21 08:26:11;;;;;;;1.05;0.98;;;;;;;21.45;45.29;101980.72;5026330;28;20055;-33
2023/05/21 08:28:38;;;;;;;1.17;1.08;;;;;;;21.45;45.38;101975.31;5028843;28;20041;-34
2023/05/21 08:31:05;;;;;;;1.30;1.00;;;;;;;21.47;45.57;101970.63;5023245;28;20100;-33
2023/05/21 08:33:35;;;;;;;1.27;0.77;;;;;;;21.47;45.49;101975.16;5019746;28;20077;-33
2023/05/21 08:36:04;;;;;;;1.58;1.17;;;;;;;21.49;45.37;101978.56;5021884;28;20327;-33
2023/05/21 08:38:31;;;;;;;1.00;0.90;;;;;;;21.49;45.28;101975.88;5020286;28;20042;-33
2023/05/21 08:40:58;;;;;;;0.98;0.98;;;;;;;21.49;45.27;101979.41;5023171;28;20054;-33
2023/05/21 08:43:28;;;;;;;1.10;1.00;;;;;;;21.50;45.14;101969.47;5025978;28;20046;-33
2023/05/21 08:45:57;;;;;;;1.42;1.25;;;;;;;21.51;45.38;101973.84;5020508;28;20132;-33
2023/05/21 08:48:25;;;;;;;1.33;1.23;;;;;;;21.52;45.23;101976.44;5018842;28;20124;-34
2023/05/21 08:50:52;;;;;;;1.25;1.08;;;;;;;21.52;45.63;101973.72;5020006;28;20108;-33
2023/05/21 08:53:22;;;;;;;1.40;1.10;;;;;;;21.54;45.14;101977.09;5022437;28;20077;-34
2023/05/21 08:55:54;;;;;;;1.40;1.00;;;;;;;21.54;45.28;101973.56;5022244;28;20049;-33
2023/05/21 08:58:21;;;;;;;2.42;1.20;;;;;;;21.54;45.11;101968.16;5022770;28;20117;-33
2023/05/21 09:00:48;;;;;;;1.00;0.90;;;;;;;21.55;45.09;101973.44;5021577;28;20057;-33
2023/05/21 09:03:15;;;;;;;2.05;1.50;;;;;;;21.56;45.42;101976.97;5017018;28;20127;-34
2023/05/21 09:05:44;;;;;;;1.17;0.95;;;;;;;21.57;45.51;101968.72;5021956;28;20079;-33
2023/05/21 09:08:20;;;;;;;1.67;1.08;;;;;;;21.57;45.25;101962.47;5021307;28;20506;-33
2023/05/21 09:10:49;;;;;;;1.35;1.17;;;;;;;21.58;45.46;101965.00;5018755;28;20136;-33
2023/05/21 09:13:17;;;;;;;3.83;1.50;;;;;;;21.59;45.47;101958.66;5022326;28;20060;-33
2023/05/21 09:15:44;;;;;;;1.40;1.10;;;;;;;21.60;45.37;101960.34;5021018;28;20088;-33
2023/05/21 09:18:14;;;;;;;1.33;1.10;;;;;;;21.61;45.34;101959.31;5019224;28;20077;-33
2023/05/21 09:20:41;;;;;;;2.33;1.83;;;;;;;21.62;45.11;101960.16;5021694;28;20049;-33
2023/05/21 09:23:15;;;;;;;1.40;1.30;;;;;;;21.63;45.30;101957.34;5020927;28;20408;-34
2023/05/21 09:25:48;;;;;;;1.70;1.20;;;;;;;21.64;45.28;101958.19;5021789;28;20115;-33
2023/05/21 09:28:16;;;;;;;1.23;1.13;;;;;;;21.66;45.24;101953.47;5018827;28;20045;-33
2023/05/21 09:30:44;;;;;;;1.55;1.30;;;;;;;21.67;45.33;101945.25;5021089;28;20903;-33
2023/05/21 09:33:11;;;;;;;1.45;1.10;;;;;;;21.69;45.54;101950.47;5021012;28;20337;-33
2023/05/21 09:35:45;;;;;;;1.67;1.20;;;;;;;21.70;45.34;101949.47;5021354;28;20497;-33
2023/05/21 09:38:12;;;;;;;1.88;1.30;;;;;;;21.74;45.40;101955.44;5021235;28;20077;-34
2023/05/21 09:40:45;;;;;;;1.20;1.10;;;;;;;21.75;45.35;101954.41;5023566;28;20141;-33
2023/05/21 09:43:15;;;;;;;2.10;1.60;;;;;;;21.77;44.96;101950.56;5025608;28;20107;-33
2023/05/21 09:45:52;;;;;;;1.48;1.20;;;;;;;21.79;45.31;101945.00;5018021;28;20550;-33
2023/05/21 09:48:33;;;;;;;1.45;1.25;;;;;;;21.82;45.02;101948.25;5019301;28;20048;-33
2023/05/21 09:51:14;;;;;;;1.35;1.25;;;;;;;21.84;45.14;101942.72;5018958;28;20048;-33
2023/05/21 09:53:56;;;;;;;1.83;1.33;;;;;;;21.89;45.27;101940.41;5024059;28;20065;-33
2023/05/21 09:56:25;;;;;;;1.95;1.30;;;;;;;21.91;44.93;101941.97;5026384;28;20053;-33
2023/05/21 09:58:56;;;;;;;1.45;1.20;;;;;;;21.94;45.19;101932.69;5023646;28;20045;-33
2023/05/21 10:01:23;;;;;;;1.45;1.20;;;;;;;21.98;44.94;101939.50;5015911;28;20090;-33
2023/05/21 10:03:55;;;;;;;1.58;1.10;;;;;;;22.00;45.10;101940.22;5018864;28;20133;-34
2023/05/21 10:06:30;;;;;;;1.30;1.15;;;;;;;22.03;45.03;101934.50;5016960;28;20236;-34
2023/05/21 10:09:02;;;;;;;1.65;1.30;;;;;;;22.05;44.77;101927.09;5024466;28;20049;-33
2023/05/21 10:11:33;;;;;;;1.30;1.20;;;;;;;22.08;44.95;101931.34;5023326;28;20057;-33
2023/05/21 10:14:06;;;;;;;1.92;1.27;;;;;;;22.11;45.00;101925.59;5023827;28;20041;-34
2023/05/21 10:16:34;;;;;;;1.60;1.50;;;;;;;22.14;44.92;101923.47;5025776;28;20046;-34
2023/05/21 10:19:03;;;;;;;1.58;1.30;;;;;;;22.16;44.93;101923.34;5016739;28;20812;-34
2023/05/21 10:21:32;;;;;;;1.50;1.20;;;;;;;22.19;44.91;101923.00;5020723;28;20345;-33
2023/05/21 10:24:01;;;;;;;2.45;1.40;;;;;;;22.22;44.69;101919.16;5020361;28;20049;-34
2023/05/21 10:26:28;;;;;;;1.25;1.08;;;;;;;22.25;44.87;101916.16;5021002;28;20092;-33
2023/05/21 10:28:58;;;;;;;2.03;1.48;;;;;;;22.28;45.17;101923.97;4961858;28;20169;-32
2023/05/21 10:31:27;;;;;;;2.10;1.50;;;;;;;22.31;44.93;101924.50;4942775;28;20404;-33
2023/05/21 10:33:54;;;;;;;1.67;1.23;;;;;;;22.34;44.77;101912.50;5005944;28;20077;-33
2023/05/21 10:36:24;;;;;;;1.15;1.05;;;;;;;22.35;45.06;101915.09;5025969;28;20073;-33
2023/05/21 10:38:51;;;;;;;1.55;1.38;;;;;;;22.39;44.69;101921.00;5018812;28;20041;-33
2023/05/21 10:41:20;;;;;;;2.35;1.20;;;;;;;22.41;45.06;101927.09;5022105;28;20050;-33
2023/05/21 10:43:50;;;;;;;1.80;1.35;;;;;;;22.44;44.73;101929.50;5025864;28;20325;-33
2023/05/21 10:47:05;;;;;;;1.48;1.20;;;;;;;22.46;44.91;101923.94;5021548;28;20073;-33
2023/05/21 10:50:07;;;;;;;1.55;1.30;;;;;;;22.49;44.71;101916.38;5021332;28;20098;-33
2023/05/21 10:52:51;;;;;;;1.70;1.23;;;;;;;22.52;44.79;101910.66;5019230;28;20049;-34
2023/05/21 10:55:53;;;;;;;1.63;1.10;;;;;;;22.55;44.79;101913.03;5027002;28;20414;-34
2023/05/21 10:58:35;;;;;;;1.35;1.25;;;;;;;22.58;45.02;101918.09;5024993;28;20079;-33
2023/05/21 11:01:02;;;;;;;1.25;1.15;;;;;;;22.61;44.70;101920.50;5025929;28;20107;-34
2023/05/21 11:03:31;;;;;;;2.03;1.13;;;;;;;22.63;44.82;101920.34;5021883;28;20050;-34
2023/05/21 11:06:05;;;;;;;1.58;1.30;;;;;;;22.64;44.52;101914.78;5022015;28;20133;-33
2023/05/21 11:08:34;;;;;;;1.38;1.27;;;;;;;22.67;44.90;101908.19;5021277;28;20052;-34
2023/05/21 11:11:02;;;;;;;1.65;1.30;;;;;;;22.69;44.71;101911.59;5031115;28;20057;-33
2023/05/21 11:13:50;;;;;;;1.58;1.30;;;;;;;22.71;44.71;101906.03;5027077;28;20191;-33
2023/05/21 11:16:17;;;;;;;2.03;1.52;;;;;;;22.74;44.67;101906.56;5025952;28;20058;-33
2023/05/21 11:18:43;;;;;;;1.55;1.20;;;;;;;22.76;44.73;101899.16;5023548;28;20095;-33
2023/05/21 11:21:15;;;;;;;1.80;1.20;;;;;;;22.77;44.61;101905.41;5020089;28;20049;-33
2023/05/21 11:23:58;;;;;;;1.75;1.20;;;;;;;22.79;44.43;101892.56;5022330;28;20053;-34
2023/05/21 11:26:26;;;;;;;1.90;1.50;;;;;;;22.80;44.45;101894.28;5031810;28;20046;-34
2023/05/21 11:29:02;;;;;;;1.55;1.40;;;;;;;22.81;44.42;101890.56;5025539;28;20046;-34